createdAt,value
2018-10-16T00:00:17.328Z,8.37
2018-10-16T00:02:47.403Z,8.97
2018-10-16T00:05:18.097Z,8.90
2018-10-16T00:07:47.747Z,8.20
2018-10-16T00:10:22.576Z,9.07
2018-10-16T00:12:52.208Z,8.23
2018-10-16T00:15:21.849Z,8.07
2018-10-16T00:17:51.515Z,8.57
2018-10-16T00:20:21.139Z,8.83
2018-10-16T00:22:50.980Z,8.37
2018-10-16T00:25:20.632Z,8.20
2018-10-16T00:27:50.328Z,8.50
2018-10-16T00:30:20.040Z,8.37
2018-10-16T00:32:49.734Z,8.10
2018-10-16T00:35:19.404Z,9.00
2018-10-16T00:37:49.032Z,7.83
2018-10-16T00:40:18.660Z,8.93
2018-10-16T00:42:48.376Z,8.80
2018-10-16T00:45:18.022Z,8.13
2018-10-16T00:47:47.675Z,8.60
2018-10-16T00:50:17.361Z,8.27
2018-10-16T00:52:47.004Z,8.43
2018-10-16T00:55:16.688Z,8.40
2018-10-16T00:57:46.365Z,8.70
2018-10-16T01:00:16.131Z,8.47
2018-10-16T01:02:45.807Z,7.90
2018-10-16T01:05:15.556Z,8.63
2018-10-16T01:07:45.200Z,8.57
2018-10-16T01:10:14.849Z,8.37
2018-10-16T01:12:44.543Z,8.67
2018-10-16T01:15:14.173Z,8.23
2018-10-16T01:17:43.816Z,8.00
2018-10-16T01:20:14.274Z,7.97
2018-10-16T01:22:44.176Z,7.47
2018-10-16T01:25:14.261Z,7.97
2018-10-16T01:27:43.905Z,8.67
2018-10-16T01:30:13.544Z,7.87
2018-10-16T01:32:43.237Z,8.23
2018-10-16T01:35:13.151Z,8.00
2018-10-16T01:37:43.127Z,8.07
2018-10-16T01:40:12.764Z,7.53
2018-10-16T01:42:42.428Z,8.30
2018-10-16T01:45:12.224Z,8.43
2018-10-16T01:47:41.888Z,8.70
2018-10-16T01:50:11.523Z,8.30
2018-10-16T01:52:41.208Z,8.33
2018-10-16T01:55:16.443Z,8.87
2018-10-16T01:57:46.510Z,8.40
2018-10-16T02:00:16.480Z,8.73
2018-10-16T02:02:46.728Z,9.00
2018-10-16T02:05:16.732Z,7.93
2018-10-16T02:07:46.769Z,8.43
2018-10-16T02:10:16.766Z,8.30
2018-10-16T02:12:46.713Z,8.43
2018-10-16T02:15:16.744Z,9.00
2018-10-16T02:17:46.760Z,8.37
2018-10-16T02:20:16.784Z,9.00
2018-10-16T02:22:46.814Z,8.43
2018-10-16T02:25:16.792Z,8.27
2018-10-16T02:27:46.849Z,7.47
2018-10-16T02:30:16.873Z,8.30
2018-10-16T02:32:46.872Z,8.50
2018-10-16T02:35:16.870Z,8.37
2018-10-16T02:37:46.900Z,8.73
2018-10-16T02:40:16.914Z,9.03
2018-10-16T02:42:46.964Z,8.70
2018-10-16T02:45:16.995Z,8.57
2018-10-16T02:47:46.991Z,8.63
2018-10-16T02:50:17.013Z,8.70
2018-10-16T02:52:46.929Z,8.43
2018-10-16T02:55:16.933Z,8.90
2018-10-16T02:57:47.544Z,7.90
2018-10-16T03:00:17.556Z,8.80
2018-10-16T03:02:47.476Z,8.47
2018-10-16T03:05:17.425Z,8.87
2018-10-16T03:07:47.431Z,8.97
2018-10-16T03:10:17.358Z,8.23
2018-10-16T03:12:47.364Z,9.20
2018-10-16T03:15:17.333Z,7.77
2018-10-16T03:17:47.337Z,9.00
2018-10-16T03:20:17.494Z,8.57
2018-10-16T03:22:47.542Z,7.97
2018-10-16T03:25:17.485Z,8.47
2018-10-16T03:27:47.472Z,8.67
2018-10-16T03:30:17.323Z,8.97
2018-10-16T03:32:47.373Z,8.73
2018-10-16T03:35:17.372Z,8.63
2018-10-16T03:37:47.316Z,7.87
2018-10-16T03:40:17.435Z,8.80
2018-10-16T03:42:47.352Z,8.90
2018-10-16T03:45:17.381Z,8.50
2018-10-16T03:47:47.466Z,8.23
2018-10-16T03:50:17.296Z,8.50
2018-10-16T03:52:47.334Z,8.83
2018-10-16T03:55:17.354Z,8.27
2018-10-16T03:57:47.372Z,8.40
2018-10-16T04:00:17.385Z,8.30
2018-10-16T04:02:47.309Z,9.07
2018-10-16T04:05:17.355Z,9.10
2018-10-16T04:07:47.344Z,8.47
2018-10-16T04:10:17.372Z,9.17
2018-10-16T04:12:47.384Z,9.10
2018-10-16T04:15:17.395Z,9.10
2018-10-16T04:17:47.411Z,9.03
2018-10-16T04:20:17.444Z,9.57
2018-10-16T04:22:47.556Z,9.47
2018-10-16T04:25:17.444Z,9.50
2018-10-16T04:27:47.388Z,9.27
2018-10-16T04:30:17.688Z,9.17
2018-10-16T04:32:47.748Z,10.17
2018-10-16T04:35:18.358Z,9.93
2018-10-16T04:37:48.412Z,9.47
2018-10-16T04:40:18.541Z,9.53
2018-10-16T04:42:48.558Z,9.00
2018-10-16T04:45:18.431Z,10.00
2018-10-16T04:47:48.260Z,9.47
2018-10-16T04:50:18.351Z,9.77
2018-10-16T04:52:48.444Z,10.20
2018-10-16T04:55:18.331Z,9.47
2018-10-16T04:57:48.273Z,9.83
2018-10-16T05:00:18.204Z,9.37
2018-10-16T05:02:48.185Z,10.53
2018-10-16T05:05:23.755Z,10.53
2018-10-16T05:07:54.056Z,9.73
2018-10-16T05:10:24.080Z,10.50
2018-10-16T05:12:54.125Z,10.63
2018-10-16T05:15:28.486Z,9.70
2018-10-16T05:17:58.769Z,9.70
2018-10-16T05:20:28.906Z,9.27
2018-10-16T05:23:00.060Z,10.67
2018-10-16T05:25:30.843Z,9.83
2018-10-16T05:28:00.866Z,9.87
2018-10-16T05:30:30.952Z,10.17
2018-10-16T05:33:00.907Z,10.60
2018-10-16T05:35:31.005Z,10.80
2018-10-16T05:38:01.049Z,10.37
2018-10-16T05:40:31.248Z,9.90
2018-10-16T05:43:01.368Z,10.37
2018-10-16T05:45:33.531Z,10.53
2018-10-16T05:48:03.225Z,10.40
2018-10-16T05:50:32.880Z,10.63
2018-10-16T05:53:02.717Z,10.13
2018-10-16T05:55:32.356Z,10.60
2018-10-16T05:58:02.537Z,10.53
2018-10-16T06:00:41.221Z,10.10
2018-10-16T06:03:11.025Z,10.27
2018-10-16T06:05:40.817Z,10.83
2018-10-16T06:08:10.453Z,10.57
2018-10-16T06:10:40.192Z,10.23
2018-10-16T06:13:09.854Z,10.40
2018-10-16T06:15:39.500Z,10.47
2018-10-16T06:18:09.188Z,10.43
2018-10-16T06:20:39.000Z,9.83
2018-10-16T06:23:08.768Z,10.13
2018-10-16T06:25:38.492Z,9.73
2018-10-16T06:28:21.164Z,10.57
2018-10-16T06:30:50.873Z,10.77
2018-10-16T06:33:30.217Z,11.13
2018-10-16T06:35:59.908Z,10.57
2018-10-16T06:38:29.580Z,12.00
2018-10-16T06:40:59.469Z,10.03
2018-10-16T06:43:29.036Z,11.53
2018-10-16T06:45:58.684Z,11.33
2018-10-16T06:48:28.566Z,11.37
2018-10-16T06:50:58.091Z,10.73
2018-10-16T06:53:27.817Z,12.10
2018-10-16T06:55:57.488Z,11.70
2018-10-16T06:58:27.148Z,11.30
2018-10-16T07:00:56.788Z,11.87
2018-10-16T07:03:26.488Z,11.90
2018-10-16T07:05:56.155Z,11.67
2018-10-16T07:08:26.627Z,11.23
2018-10-16T07:10:56.440Z,10.73
2018-10-16T07:13:26.380Z,11.10
2018-10-16T07:15:56.121Z,11.30
2018-10-16T07:18:25.793Z,11.03
2018-10-16T07:20:55.503Z,9.97
2018-10-16T07:23:25.300Z,11.73
2018-10-16T07:25:54.908Z,11.47
2018-10-16T07:28:24.868Z,10.83
2018-10-16T07:30:54.541Z,11.47
2018-10-16T07:33:24.228Z,11.50
2018-10-16T07:35:53.893Z,11.43
2018-10-16T07:38:23.588Z,11.90
2018-10-16T07:40:53.305Z,11.47
2018-10-16T07:43:22.968Z,11.90
2018-10-16T07:45:52.635Z,11.20
2018-10-16T07:48:22.342Z,12.23
2018-10-16T07:50:51.994Z,11.47
2018-10-16T07:53:21.648Z,11.13
2018-10-16T07:55:51.389Z,11.00
2018-10-16T07:58:21.062Z,11.20
2018-10-16T08:00:50.720Z,11.07
2018-10-16T08:03:20.432Z,11.47
2018-10-16T08:05:50.106Z,11.93
2018-10-16T08:08:19.929Z,11.43
2018-10-16T08:10:49.639Z,12.00
2018-10-16T08:13:19.295Z,11.23
2018-10-16T08:15:48.958Z,11.10
2018-10-16T08:18:18.657Z,11.43
2018-10-16T08:20:48.309Z,11.47
2018-10-16T08:23:17.966Z,11.80
2018-10-16T08:25:47.667Z,11.20
2018-10-16T08:28:17.517Z,11.20
2018-10-16T08:30:47.221Z,10.43
2018-10-16T08:33:16.902Z,10.53
2018-10-16T08:35:46.561Z,10.50
2018-10-16T08:38:52.608Z,11.00
2018-10-16T08:41:28.365Z,11.23
2018-10-16T08:44:39.834Z,9.97
2018-10-16T08:47:20.439Z,10.47
2018-10-16T08:50:01.148Z,10.90
2018-10-16T08:52:30.796Z,11.10
2018-10-16T08:55:00.464Z,11.53
2018-10-16T08:57:30.192Z,11.57
2018-10-16T08:59:59.847Z,11.90
2018-10-16T09:02:29.522Z,11.33
2018-10-16T09:04:59.235Z,11.27
2018-10-16T09:07:28.889Z,11.30
2018-10-16T09:09:58.564Z,11.87
2018-10-16T09:12:28.268Z,11.00
2018-10-16T09:14:57.927Z,11.67
2018-10-16T09:17:27.585Z,11.20
2018-10-16T09:19:57.269Z,11.70
2018-10-16T09:22:26.914Z,11.23
2018-10-16T09:24:56.622Z,13.07
2018-10-16T09:27:26.324Z,12.13
2018-10-16T09:29:56.060Z,10.53
2018-10-16T09:32:25.932Z,11.47
2018-10-16T09:34:55.612Z,12.07
2018-10-16T09:37:25.298Z,11.77
2018-10-16T09:39:54.977Z,10.73
2018-10-16T09:42:24.696Z,12.77
2018-10-16T09:44:54.360Z,11.90
2018-10-16T09:47:24.044Z,12.10
2018-10-16T09:49:53.824Z,11.67
2018-10-16T09:52:23.547Z,12.63
2018-10-16T09:54:53.248Z,11.67
2018-10-16T09:57:22.913Z,11.43
2018-10-16T09:59:52.561Z,11.93
2018-10-16T10:02:22.256Z,12.00
2018-10-16T10:04:51.935Z,11.27
2018-10-16T10:07:21.672Z,11.17
2018-10-16T10:09:51.392Z,10.63
2018-10-16T10:12:21.055Z,9.50
2018-10-16T10:14:50.740Z,10.57
2018-10-16T10:17:20.464Z,9.17
2018-10-16T10:19:50.113Z,10.30
2018-10-16T10:22:19.796Z,10.30
2018-10-16T10:24:49.512Z,9.73
2018-10-16T10:27:19.188Z,10.07
2018-10-16T10:29:48.943Z,10.67
2018-10-16T10:32:18.600Z,10.03
2018-10-16T10:34:48.275Z,10.20
2018-10-16T10:37:17.925Z,9.77
2018-10-16T10:39:47.652Z,10.83
2018-10-16T10:42:17.409Z,10.23
2018-10-16T10:44:47.086Z,9.47
2018-10-16T10:47:16.745Z,9.73
2018-10-16T10:49:46.444Z,9.67
2018-10-16T10:52:16.168Z,10.10
2018-10-16T10:54:45.808Z,9.57
2018-10-16T10:57:15.557Z,9.80
2018-10-16T10:59:45.228Z,9.80
2018-10-16T11:02:14.863Z,9.73
2018-10-16T11:04:44.539Z,9.37
2018-10-16T11:07:14.221Z,9.03
2018-10-16T11:09:43.856Z,9.40
2018-10-16T11:12:13.516Z,9.57
2018-10-16T11:14:43.319Z,9.43
2018-10-16T11:17:12.993Z,9.03
2018-10-16T11:19:42.661Z,9.40
2018-10-16T11:22:12.385Z,9.58
2018-10-16T11:24:42.121Z,10.03
2018-10-16T11:27:11.864Z,9.23
2018-10-16T11:29:41.506Z,9.70
2018-10-16T11:32:11.174Z,9.35
2018-10-16T11:34:40.825Z,9.18
2018-10-16T11:37:10.592Z,9.50
2018-10-16T11:39:40.210Z,10.03
2018-10-16T11:42:09.864Z,9.10
2018-10-16T11:44:39.580Z,9.35
2018-10-16T11:47:09.266Z,8.95
2018-10-16T11:49:38.924Z,8.48
2018-10-16T11:52:08.637Z,9.55
2018-10-16T11:54:38.292Z,9.28
2018-10-16T11:57:07.972Z,8.58
2018-10-16T11:59:37.672Z,8.50
2018-10-16T12:02:07.384Z,11.00
2018-10-16T12:04:37.233Z,9.75
2018-10-16T12:07:07.042Z,9.93
2018-10-16T12:09:36.628Z,11.95
2018-10-16T12:12:06.525Z,9.78
2018-10-16T12:14:36.208Z,9.90
2018-10-16T12:18:12.317Z,10.23
2018-10-16T12:20:46.052Z,10.03
2018-10-16T12:23:15.808Z,9.45
2018-10-16T12:25:45.517Z,11.00
2018-10-16T12:28:15.225Z,10.58
2018-10-16T12:30:44.920Z,10.55
2018-10-16T12:33:14.734Z,13.05
2018-10-16T12:35:44.307Z,12.05
2018-10-16T12:38:14.028Z,10.28
2018-10-16T12:40:43.801Z,10.55
2018-10-16T12:43:13.601Z,10.95
2018-10-16T12:45:43.233Z,11.00
2018-10-16T12:48:12.994Z,9.38
2018-10-16T12:50:42.633Z,10.13
2018-10-16T12:53:12.394Z,10.38
2018-10-16T12:55:42.067Z,10.50
2018-10-16T12:58:11.752Z,9.95
2018-10-16T13:00:41.396Z,10.05
2018-10-16T13:03:11.157Z,9.28
2018-10-16T13:05:40.797Z,8.53
2018-10-16T13:08:10.634Z,8.58
2018-10-16T13:10:40.171Z,9.15
2018-10-16T13:13:09.825Z,10.32
2018-10-16T13:15:39.472Z,8.78
2018-10-16T13:18:09.225Z,8.70
2018-10-16T13:20:38.900Z,8.65
2018-10-16T13:23:08.650Z,8.85
2018-10-16T13:25:38.386Z,8.35
2018-10-16T13:28:07.649Z,8.30
2018-10-16T13:30:37.283Z,8.48
2018-10-16T13:33:06.997Z,8.53
2018-10-16T13:35:36.664Z,8.08
2018-10-16T13:38:06.457Z,7.20
2018-10-16T13:40:36.132Z,9.13
2018-10-16T13:43:05.984Z,8.48
2018-10-16T13:45:35.684Z,8.25
2018-10-16T13:48:06.017Z,7.85
2018-10-16T13:50:35.716Z,8.70
2018-10-16T13:53:05.573Z,8.08
2018-10-16T13:55:35.263Z,8.95
2018-10-16T13:58:04.989Z,20.77
2018-10-16T14:00:34.640Z,10.58
2018-10-16T14:03:04.368Z,10.32
2018-10-16T14:05:34.118Z,9.38
2018-10-16T14:08:03.851Z,9.40
2018-10-16T14:10:33.532Z,8.03
2018-10-16T14:13:03.190Z,9.28
2018-10-16T14:15:32.845Z,10.03
2018-10-16T14:18:02.611Z,9.13
2018-10-16T14:20:32.275Z,8.90
2018-10-16T14:23:01.944Z,8.68
2018-10-16T14:25:31.677Z,9.75
2018-10-16T14:28:01.444Z,8.70
2018-10-16T14:30:31.208Z,8.13
2018-10-16T14:33:00.853Z,7.85
2018-10-16T14:35:30.515Z,8.60
2018-10-16T14:38:00.256Z,7.67
2018-10-16T14:40:29.931Z,7.35
2018-10-16T14:42:59.716Z,7.62
2018-10-16T14:45:29.357Z,7.25
2018-10-16T14:47:59.105Z,7.35
2018-10-16T14:50:28.726Z,7.08
2018-10-16T14:52:58.396Z,7.45
2018-10-16T14:55:28.060Z,7.78
2018-10-16T14:57:57.741Z,7.45
2018-10-16T15:00:27.417Z,6.72
2018-10-16T15:02:57.085Z,5.58
2018-10-16T15:05:26.743Z,6.12
2018-10-16T15:07:56.461Z,5.90
2018-10-16T15:10:26.171Z,5.87
2018-10-16T15:12:55.823Z,6.05
2018-10-16T15:15:25.475Z,5.30
2018-10-16T15:17:55.140Z,5.90
2018-10-16T15:20:24.798Z,6.03
2018-10-16T15:22:54.492Z,6.85
2018-10-16T15:25:24.173Z,6.75
2018-10-16T15:27:53.833Z,6.58
2018-10-16T15:30:23.514Z,5.97
2018-10-16T15:32:53.193Z,6.60
2018-10-16T15:35:22.836Z,6.30
2018-10-16T15:37:52.502Z,6.27
2018-10-16T15:40:22.158Z,6.00
2018-10-16T15:42:51.845Z,6.30
2018-10-16T15:45:21.503Z,6.67
2018-10-16T15:47:51.274Z,7.03
2018-10-16T15:50:20.893Z,6.40
2018-10-16T15:52:50.603Z,6.63
2018-10-16T15:55:20.245Z,6.87
2018-10-16T15:57:49.996Z,8.37
2018-10-16T16:00:19.613Z,7.43
2018-10-16T16:02:49.298Z,7.07
2018-10-16T16:05:18.935Z,7.40
2018-10-16T16:07:48.620Z,7.07
2018-10-16T16:10:18.307Z,6.83
2018-10-16T16:12:47.996Z,7.80
2018-10-16T16:15:17.681Z,7.70
2018-10-16T16:17:47.410Z,7.77
2018-10-16T16:20:17.089Z,7.03
2018-10-16T16:22:46.776Z,8.27
2018-10-16T16:25:16.641Z,7.93
2018-10-16T16:27:46.349Z,8.17
2018-10-16T16:30:16.813Z,8.43
2018-10-16T16:32:46.536Z,8.13
2018-10-16T16:35:16.193Z,8.63
2018-10-16T16:37:45.867Z,9.00
2018-10-16T16:40:17.376Z,8.67
2018-10-16T16:42:49.789Z,8.70
2018-10-16T16:45:19.472Z,8.00
2018-10-16T16:47:49.193Z,7.57
2018-10-16T16:50:18.865Z,9.33
2018-10-16T16:52:48.552Z,8.93
2018-10-16T16:55:18.936Z,8.87
2018-10-16T16:57:48.640Z,8.77
2018-10-16T17:00:18.308Z,8.60
2018-10-16T17:02:47.993Z,8.93
2018-10-16T17:05:17.674Z,8.50
2018-10-16T17:07:47.380Z,9.37
2018-10-16T17:10:17.048Z,8.90
2018-10-16T17:12:46.697Z,8.83
2018-10-16T17:15:16.974Z,9.07
2018-10-16T17:17:47.314Z,9.37
2018-10-16T17:20:17.365Z,9.27
2018-10-16T17:22:47.052Z,9.70
2018-10-16T17:25:16.897Z,8.63
2018-10-16T17:27:46.501Z,8.63
2018-10-16T17:30:17.268Z,8.47
2018-10-16T17:32:47.084Z,8.30
2018-10-16T17:35:16.744Z,8.30
2018-10-16T17:37:46.402Z,7.43
2018-10-16T17:40:17.390Z,7.97
2018-10-16T17:42:47.048Z,7.93
2018-10-16T17:45:17.746Z,9.13
2018-10-16T17:47:47.497Z,9.13
2018-10-16T17:50:18.704Z,9.23
2018-10-16T17:52:48.380Z,9.10
2018-10-16T17:55:18.141Z,8.33
2018-10-16T17:57:47.853Z,8.90
2018-10-16T18:00:18.990Z,9.30
2018-10-16T18:02:48.699Z,9.23
2018-10-16T18:05:18.484Z,9.30
2018-10-16T18:07:48.149Z,9.20
2018-10-16T18:10:17.820Z,9.73
2018-10-16T18:12:47.545Z,8.93
2018-10-16T18:15:17.214Z,9.37
2018-10-16T18:17:46.890Z,9.17
2018-10-16T18:20:17.232Z,9.80
2018-10-16T18:22:47.084Z,10.00
2018-10-16T18:25:16.773Z,9.30
2018-10-16T18:27:46.901Z,8.70
2018-10-16T18:30:16.592Z,9.17
2018-10-16T18:32:46.305Z,8.70
2018-10-16T18:35:16.008Z,8.70
2018-10-16T18:37:45.780Z,9.37
2018-10-16T18:40:15.612Z,9.27
2018-10-16T18:42:45.384Z,9.47
2018-10-16T18:45:15.548Z,9.97
2018-10-16T18:47:45.184Z,10.10
2018-10-16T18:50:15.464Z,11.40
2018-10-16T18:52:45.768Z,11.40
2018-10-16T18:55:16.028Z,10.60
2018-10-16T18:57:45.984Z,10.63
2018-10-16T19:00:17.656Z,9.80
2018-10-16T19:02:47.985Z,10.60
2018-10-16T19:05:17.673Z,9.00
2018-10-16T19:07:47.431Z,8.70
2018-10-16T19:10:17.071Z,9.90
2018-10-16T19:12:46.763Z,9.70
2018-10-16T19:15:17.879Z,9.67
2018-10-16T19:17:47.696Z,8.80
2018-10-16T19:20:17.956Z,9.33
2018-10-16T19:22:47.820Z,10.17
2018-10-16T19:25:19.140Z,10.53
2018-10-16T19:27:48.860Z,10.47
2018-10-16T19:30:18.544Z,10.27
2018-10-16T19:32:48.272Z,9.83
2018-10-16T19:35:17.925Z,9.70
2018-10-16T19:37:47.660Z,9.93
2018-10-16T19:40:17.347Z,9.97
2018-10-16T19:42:47.011Z,10.90
2018-10-16T19:45:16.817Z,10.07
2018-10-16T19:47:46.476Z,10.23
2018-10-16T19:50:16.182Z,10.00
2018-10-16T19:52:45.849Z,10.27
2018-10-16T19:55:15.573Z,9.70
2018-10-16T19:57:45.228Z,10.43
2018-10-16T20:00:14.993Z,10.43
2018-10-16T20:02:44.680Z,9.70
2018-10-16T20:05:14.437Z,10.57
2018-10-16T20:07:44.099Z,10.60
2018-10-16T20:10:13.780Z,10.10
2018-10-16T20:12:43.500Z,9.87
2018-10-16T20:15:13.713Z,10.13
2018-10-16T20:17:43.796Z,8.53
2018-10-16T20:20:13.891Z,10.10
2018-10-16T20:22:43.571Z,10.20
2018-10-16T20:25:13.343Z,10.83
2018-10-16T20:27:43.012Z,10.87
2018-10-16T20:30:12.908Z,9.40
2018-10-16T20:32:42.824Z,9.17
2018-10-16T20:35:12.785Z,9.80
2018-10-16T20:37:42.729Z,10.00
2018-10-16T20:40:12.397Z,10.27
2018-10-16T20:42:42.164Z,11.07
2018-10-16T20:45:12.772Z,11.03
2018-10-16T20:47:42.547Z,11.47
2018-10-16T20:50:12.577Z,11.00
2018-10-16T20:52:42.260Z,11.50
2018-10-16T20:55:12.039Z,12.73
2018-10-16T20:57:41.700Z,11.67
2018-10-16T21:00:11.352Z,11.90
2018-10-16T21:02:41.148Z,11.67
2018-10-16T21:05:11.079Z,12.47
2018-10-16T21:07:40.597Z,11.17
2018-10-16T21:10:10.468Z,12.50
2018-10-16T21:12:40.118Z,11.70
2018-10-16T21:15:10.578Z,12.33
2018-10-16T21:17:40.243Z,12.43
2018-10-16T21:20:10.466Z,11.63
2018-10-16T21:22:40.124Z,11.70
2018-10-16T21:25:10.248Z,12.10
2018-10-16T21:27:39.843Z,11.47
2018-10-16T21:30:10.162Z,13.27
2018-10-16T21:32:39.832Z,12.63
2018-10-16T21:35:09.572Z,12.13
2018-10-16T21:37:40.171Z,12.60
2018-10-16T21:40:10.107Z,11.87
2018-10-16T21:42:39.782Z,12.30
2018-10-16T21:45:09.520Z,11.70
2018-10-16T21:47:39.164Z,11.40
2018-10-16T21:50:08.872Z,12.23
2018-10-16T21:52:38.563Z,10.83
2018-10-16T21:55:08.323Z,12.30
2018-10-16T21:57:37.971Z,10.90
2018-10-16T22:00:13.048Z,12.47
2018-10-16T22:02:48.725Z,12.63
2018-10-16T22:05:23.851Z,12.37
2018-10-16T22:07:54.905Z,11.77
2018-10-16T22:10:24.924Z,12.83
2018-10-16T22:12:54.604Z,11.90
2018-10-16T22:15:24.342Z,13.50
2018-10-16T22:17:54.000Z,12.53
2018-10-16T22:20:23.684Z,12.17
2018-10-16T22:22:53.418Z,12.80
2018-10-16T22:25:23.061Z,13.60
2018-10-16T22:27:52.711Z,13.00
2018-10-16T22:30:22.431Z,12.27
2018-10-16T22:32:52.097Z,12.10
2018-10-16T22:35:21.771Z,14.23
2018-10-16T22:37:51.499Z,12.30
2018-10-16T22:40:21.165Z,13.27
2018-10-16T22:42:50.924Z,13.10
2018-10-16T22:45:20.600Z,14.13
2018-10-16T22:47:50.276Z,14.23
2018-10-16T22:50:19.906Z,13.97
2018-10-16T22:52:49.616Z,13.27
2018-10-16T22:55:19.266Z,14.67
2018-10-16T22:57:48.951Z,12.97
2018-10-16T23:00:19.694Z,13.23
2018-10-16T23:02:49.667Z,14.17
2018-10-16T23:05:19.361Z,13.53
2018-10-16T23:07:49.039Z,13.87
2018-10-16T23:10:18.740Z,14.07
2018-10-16T23:12:53.877Z,14.17
2018-10-16T23:15:23.516Z,13.67
2018-10-16T23:17:53.240Z,14.43
2018-10-16T23:20:23.007Z,14.40
2018-10-16T23:22:52.901Z,14.33
2018-10-16T23:25:22.895Z,16.33
2018-10-16T23:27:52.665Z,15.43
2018-10-16T23:30:22.364Z,16.07
2018-10-16T23:32:52.009Z,15.87
2018-10-16T23:35:21.670Z,15.47
2018-10-16T23:37:51.373Z,16.57
2018-10-16T23:40:21.040Z,16.43
2018-10-16T23:42:50.701Z,15.80
2018-10-16T23:45:20.435Z,16.60
2018-10-16T23:47:50.152Z,16.27
2018-10-16T23:50:19.847Z,17.97
2018-10-16T23:52:49.560Z,15.63
2018-10-16T23:55:19.197Z,16.37
2018-10-16T23:57:48.850Z,15.60
